createdAt,value
2018-05-02T00:01:04.028Z,2.15
2018-05-02T00:03:30.229Z,2.50
2018-05-02T00:05:56.427Z,2.10
2018-05-02T00:08:22.648Z,2.58
2018-05-02T00:10:49.681Z,2.30
2018-05-02T00:13:16.233Z,2.22
2018-05-02T00:15:43.381Z,2.67
2018-05-02T00:18:10.257Z,2.45
2018-05-02T00:20:36.355Z,2.50
2018-05-02T00:23:02.685Z,2.30
2018-05-02T00:25:28.889Z,2.00
2018-05-02T00:27:55.637Z,2.08
2018-05-02T00:30:21.849Z,2.15
2018-05-02T00:32:49.115Z,2.08
2018-05-02T00:35:17.064Z,2.55
2018-05-02T00:37:44.554Z,2.47
2018-05-02T00:40:10.772Z,2.20
2018-05-02T00:42:37.938Z,1.95
2018-05-02T00:45:04.180Z,2.20
2018-05-02T00:47:31.029Z,2.20
2018-05-02T00:49:57.218Z,2.08
2018-05-02T00:52:23.629Z,2.45
2018-05-02T00:54:50.837Z,2.37
2018-05-02T00:57:17.128Z,2.15
2018-05-02T00:59:44.013Z,2.00
2018-05-02T01:02:10.252Z,2.40
2018-05-02T01:04:36.477Z,2.30
2018-05-02T01:07:02.681Z,2.05
2018-05-02T01:09:30.141Z,2.20
2018-05-02T01:11:58.150Z,1.95
2018-05-02T01:14:25.742Z,2.53
2018-05-02T01:16:52.331Z,2.10
2018-05-02T01:19:19.553Z,2.20
2018-05-02T01:21:45.751Z,2.12
2018-05-02T01:24:12.610Z,2.20
2018-05-02T01:26:39.824Z,2.22
2018-05-02T01:29:07.170Z,2.20
2018-05-02T01:31:34.714Z,2.72
2018-05-02T01:34:00.897Z,2.03
2018-05-02T01:36:27.297Z,2.20
2018-05-02T01:38:54.235Z,2.10
2018-05-02T01:41:21.359Z,1.95
2018-05-02T01:43:48.470Z,1.90
2018-05-02T01:46:15.243Z,1.77
2018-05-02T01:48:54.311Z,2.08
2018-05-02T01:51:21.931Z,2.00
2018-05-02T01:53:48.343Z,2.15
2018-05-02T01:56:16.838Z,1.80
2018-05-02T01:58:43.258Z,1.70
2018-05-02T02:01:11.097Z,1.90
2018-05-02T02:03:37.965Z,2.10
2018-05-02T02:06:04.184Z,2.10
2018-05-02T02:08:30.911Z,1.80
2018-05-02T02:10:58.292Z,2.10
2018-05-02T02:13:25.281Z,1.75
2018-05-02T02:15:52.777Z,2.05
2018-05-02T02:18:19.106Z,1.95
2018-05-02T02:20:45.886Z,2.05
2018-05-02T02:23:12.088Z,1.90
2018-05-02T02:25:38.973Z,2.30
2018-05-02T02:28:05.287Z,2.20
2018-05-02T02:30:31.513Z,2.25
2018-05-02T02:32:58.598Z,1.87
2018-05-02T02:35:25.533Z,2.30
2018-05-02T02:37:53.705Z,2.70
2018-05-02T02:40:20.757Z,2.35
2018-05-02T02:42:48.289Z,2.40
2018-05-02T02:45:15.249Z,1.92
2018-05-02T02:47:41.618Z,1.80
2018-05-02T02:50:08.666Z,2.22
2018-05-02T02:52:34.947Z,1.95
2018-05-02T02:55:01.313Z,2.35
2018-05-02T02:57:28.276Z,1.90
2018-05-02T02:59:54.590Z,2.05
2018-05-02T03:02:21.607Z,1.98
2018-05-02T03:04:48.378Z,2.20
2018-05-02T03:07:14.935Z,2.00
2018-05-02T03:09:41.226Z,2.65
2018-05-02T03:12:09.705Z,2.30
2018-05-02T03:14:36.644Z,2.30
2018-05-02T03:17:03.620Z,2.10
2018-05-02T03:19:30.348Z,2.10
2018-05-02T03:21:56.736Z,2.40
2018-05-02T03:24:23.719Z,2.60
2018-05-02T03:26:50.889Z,1.98
2018-05-02T03:29:18.064Z,2.40
2018-05-02T03:31:45.058Z,2.30
2018-05-02T03:34:12.792Z,2.87
2018-05-02T03:36:40.824Z,2.92
2018-05-02T03:39:08.568Z,2.65
2018-05-02T03:41:35.507Z,3.37
2018-05-02T03:44:03.070Z,3.95
2018-05-02T03:46:30.519Z,4.35
2018-05-02T03:48:58.062Z,3.40
2018-05-02T03:51:24.829Z,3.80
2018-05-02T03:53:51.775Z,3.40
2018-05-02T03:56:17.972Z,4.00
2018-05-02T03:58:44.260Z,4.10
2018-05-02T04:01:22.735Z,3.60
2018-05-02T04:04:02.261Z,4.05
2018-05-02T04:06:41.735Z,4.37
2018-05-02T04:09:08.438Z,4.20
2018-05-02T04:11:35.401Z,3.90
2018-05-02T04:14:03.034Z,5.12
2018-05-02T04:16:29.827Z,4.18
2018-05-02T04:18:56.640Z,4.03
2018-05-02T04:21:23.933Z,3.85
2018-05-02T04:23:52.000Z,3.20
2018-05-02T04:26:19.008Z,3.20
2018-05-02T04:28:46.597Z,4.45
2018-05-02T04:31:12.959Z,4.28
2018-05-02T04:33:40.188Z,4.05
2018-05-02T04:36:07.239Z,4.40
2018-05-02T04:38:33.450Z,4.47
2018-05-02T04:41:10.873Z,4.20
2018-05-02T04:43:37.273Z,4.43
2018-05-02T04:46:04.233Z,3.83
2018-05-02T04:48:30.423Z,4.87
2018-05-02T04:50:57.967Z,4.45
2018-05-02T04:53:26.035Z,3.60
2018-05-02T04:55:53.653Z,4.65
2018-05-02T04:58:19.885Z,4.22
2018-05-02T05:00:46.519Z,3.90
2018-05-02T05:03:13.810Z,4.30
2018-05-02T05:05:40.004Z,3.80
2018-05-02T05:08:07.515Z,4.10
2018-05-02T05:10:34.567Z,3.72
2018-05-02T05:13:02.172Z,3.97
2018-05-02T05:15:28.447Z,4.10
2018-05-02T05:17:54.594Z,4.00
2018-05-02T05:20:20.947Z,3.70
2018-05-02T05:22:48.018Z,3.90
2018-05-02T05:25:14.433Z,3.77
2018-05-02T05:27:41.484Z,3.83
2018-05-02T05:30:09.222Z,4.10
2018-05-02T05:32:36.225Z,3.53
2018-05-02T05:35:04.304Z,4.70
2018-05-02T05:37:31.098Z,4.07
2018-05-02T05:39:57.333Z,4.07
2018-05-02T05:42:23.558Z,4.40
2018-05-02T05:44:50.751Z,4.47
2018-05-02T05:47:17.149Z,4.67
2018-05-02T05:49:44.394Z,5.10
2018-05-02T05:52:12.059Z,4.27
2018-05-02T05:54:38.395Z,4.07
2018-05-02T05:57:05.901Z,4.47
2018-05-02T05:59:33.965Z,4.00
2018-05-02T06:02:01.805Z,3.93
2018-05-02T06:04:28.615Z,4.70
2018-05-02T06:06:56.411Z,5.20
2018-05-02T06:09:23.759Z,5.63
2018-05-02T06:11:51.401Z,5.87
2018-05-02T06:14:18.310Z,5.60
2018-05-02T06:16:45.078Z,5.33
2018-05-02T06:19:11.896Z,5.77
2018-05-02T06:21:39.162Z,5.70
2018-05-02T06:24:05.954Z,6.20
2018-05-02T06:26:32.152Z,6.30
2018-05-02T06:28:58.914Z,5.17
2018-05-02T06:31:25.255Z,5.87
2018-05-02T06:33:52.452Z,5.50
2018-05-02T06:36:19.240Z,4.73
2018-05-02T06:38:45.426Z,4.57
2018-05-02T06:41:11.620Z,4.10
2018-05-02T06:43:39.204Z,4.97
2018-05-02T06:46:06.503Z,4.50
2018-05-02T06:48:34.554Z,4.27
2018-05-02T06:51:00.798Z,4.60
2018-05-02T06:53:27.035Z,5.10
2018-05-02T06:55:53.263Z,4.50
2018-05-02T06:58:19.750Z,4.43
2018-05-02T07:00:46.540Z,4.23
2018-05-02T07:03:14.159Z,4.03
2018-05-02T07:05:40.883Z,4.10
2018-05-02T07:08:07.081Z,4.10
2018-05-02T07:10:34.733Z,3.80
2018-05-02T07:13:01.605Z,3.93
2018-05-02T07:15:29.131Z,3.50
2018-05-02T07:18:03.515Z,3.73
2018-05-02T07:20:36.789Z,3.60
2018-05-02T07:23:03.623Z,4.00
2018-05-02T07:25:30.023Z,3.50
2018-05-02T07:27:57.934Z,3.60
2018-05-02T07:30:24.731Z,3.40
2018-05-02T07:32:52.889Z,3.60
2018-05-02T07:35:19.708Z,3.70
2018-05-02T07:37:47.753Z,4.37
2018-05-02T07:40:14.421Z,3.63
2018-05-02T07:42:41.425Z,3.83
2018-05-02T07:45:09.133Z,3.40
2018-05-02T07:47:37.123Z,4.10
2018-05-02T07:50:03.867Z,3.97
2018-05-02T07:52:30.214Z,4.43
2018-05-02T07:54:57.240Z,3.87
2018-05-02T07:57:23.419Z,4.03
2018-05-02T07:59:49.631Z,3.70
2018-05-02T08:02:16.377Z,3.17
2018-05-02T08:04:44.262Z,2.97
2018-05-02T08:07:10.905Z,3.50
2018-05-02T08:09:37.529Z,3.07
2018-05-02T08:12:04.523Z,3.90
2018-05-02T08:14:31.420Z,3.23
2018-05-02T08:16:58.160Z,3.40
2018-05-02T08:19:24.349Z,3.20
2018-05-02T08:21:51.294Z,3.00
2018-05-02T08:24:18.240Z,3.00
2018-05-02T08:26:45.185Z,3.70
2018-05-02T08:29:12.098Z,3.53
2018-05-02T08:31:38.877Z,3.17
2018-05-02T08:34:05.848Z,2.77
2018-05-02T08:36:32.979Z,3.60
2018-05-02T08:38:59.281Z,3.63
2018-05-02T08:41:26.715Z,3.60
2018-05-02T08:43:53.219Z,3.33
2018-05-02T08:46:19.950Z,2.83
2018-05-02T08:48:46.719Z,3.70
2018-05-02T08:51:13.482Z,3.00
2018-05-02T08:53:40.250Z,2.83
2018-05-02T08:56:07.218Z,3.07
2018-05-02T08:58:33.416Z,3.17
2018-05-02T09:01:00.534Z,2.87
2018-05-02T09:03:28.037Z,3.10
2018-05-02T09:05:54.789Z,4.20
2018-05-02T09:08:21.607Z,3.43
2018-05-02T09:10:49.099Z,3.10
2018-05-02T09:13:15.373Z,3.00
2018-05-02T09:15:41.560Z,2.97
2018-05-02T09:18:07.757Z,3.57
2018-05-02T09:20:35.370Z,3.20
2018-05-02T09:23:01.549Z,2.90
2018-05-02T09:25:27.741Z,4.10
2018-05-02T09:27:54.549Z,2.93
2018-05-02T09:30:21.292Z,3.63
2018-05-02T09:32:48.111Z,3.20
2018-05-02T09:35:14.927Z,3.13
2018-05-02T09:37:43.647Z,3.10
2018-05-02T09:40:10.890Z,2.87
2018-05-02T09:42:38.129Z,3.10
2018-05-02T09:45:04.922Z,3.10
2018-05-02T09:47:31.127Z,3.30
2018-05-02T09:49:58.124Z,2.80
2018-05-02T09:52:25.048Z,3.57
2018-05-02T09:54:51.319Z,3.13
2018-05-02T09:57:18.364Z,3.50
2018-05-02T09:59:45.488Z,3.63
2018-05-02T10:02:12.971Z,3.40
2018-05-02T10:04:39.200Z,3.50
2018-05-02T10:07:05.655Z,3.30
2018-05-02T10:09:31.855Z,2.73
2018-05-02T10:11:58.323Z,3.00
2018-05-02T10:14:25.071Z,3.40
2018-05-02T10:16:52.279Z,3.50
2018-05-02T10:19:18.981Z,2.60
2018-05-02T10:21:46.165Z,3.07
2018-05-02T10:24:14.383Z,3.13
2018-05-02T10:26:41.147Z,3.47
2018-05-02T10:29:07.327Z,2.80
2018-05-02T10:31:34.683Z,3.20
2018-05-02T10:34:01.377Z,3.27
2018-05-02T10:36:28.893Z,3.67
2018-05-02T10:38:55.082Z,2.90
2018-05-02T10:41:22.017Z,4.00
2018-05-02T10:43:49.531Z,2.90
2018-05-02T10:46:17.039Z,3.00
2018-05-02T10:48:43.992Z,3.60
2018-05-02T10:51:10.775Z,3.27
2018-05-02T10:53:37.543Z,3.30
2018-05-02T10:56:03.899Z,3.10
2018-05-02T10:58:30.554Z,3.20
2018-05-02T11:00:57.700Z,3.60
2018-05-02T11:03:25.689Z,3.50
2018-05-02T11:05:52.506Z,3.43
2018-05-02T11:08:19.280Z,3.30
2018-05-02T11:10:45.478Z,3.73
2018-05-02T11:13:11.672Z,3.50
2018-05-02T11:15:38.121Z,3.23
2018-05-02T11:18:05.185Z,3.90
2018-05-02T11:20:31.411Z,3.80
2018-05-02T11:22:57.662Z,3.00
2018-05-02T11:25:23.872Z,3.17
2018-05-02T11:27:50.715Z,2.87
2018-05-02T11:30:16.941Z,4.87
2018-05-02T11:32:43.169Z,3.00
2018-05-02T11:35:09.920Z,3.00
2018-05-02T11:37:36.157Z,3.60
2018-05-02T11:40:02.385Z,3.43
2018-05-02T11:42:28.580Z,2.93
2018-05-02T11:44:56.216Z,3.10
2018-05-02T11:47:22.826Z,3.03
2018-05-02T11:49:50.801Z,3.30
2018-05-02T11:52:18.743Z,3.20
2018-05-02T11:54:46.435Z,3.00
2018-05-02T11:57:13.253Z,3.20
2018-05-02T11:59:39.480Z,3.33
2018-05-02T12:02:05.839Z,3.40
2018-05-02T12:04:33.366Z,3.33
2018-05-02T12:06:59.604Z,3.00
2018-05-02T12:09:25.812Z,3.50
2018-05-02T12:11:53.283Z,2.93
2018-05-02T12:14:20.103Z,3.33
2018-05-02T12:16:46.310Z,3.30
2018-05-02T12:19:14.008Z,3.20
2018-05-02T12:21:41.097Z,3.37
2018-05-02T12:24:07.338Z,2.87
2018-05-02T12:26:35.365Z,2.80
2018-05-02T12:29:02.134Z,2.97
2018-05-02T12:31:28.842Z,3.00
2018-05-02T12:33:55.551Z,3.33
2018-05-02T12:36:22.041Z,3.60
2018-05-02T12:38:48.904Z,3.50
2018-05-02T12:41:16.506Z,3.77
2018-05-02T12:43:42.711Z,2.97
2018-05-02T12:46:08.886Z,3.30
2018-05-02T12:48:37.012Z,3.47
2018-05-02T12:51:04.695Z,3.47
2018-05-02T12:53:31.629Z,3.37
2018-05-02T12:55:58.766Z,3.10
2018-05-02T12:58:26.245Z,2.90
2018-05-02T13:00:53.565Z,2.83
2018-05-02T13:03:21.131Z,3.43
2018-05-02T13:05:48.104Z,2.73
2018-05-02T13:08:14.384Z,3.27
2018-05-02T13:10:41.162Z,3.13
2018-05-02T13:13:07.690Z,3.17
2018-05-02T13:15:34.408Z,3.07
2018-05-02T13:18:01.523Z,3.37
2018-05-02T13:20:28.183Z,3.50
2018-05-02T13:22:55.161Z,3.47
2018-05-02T13:25:21.512Z,3.57
2018-05-02T13:27:49.490Z,3.47
2018-05-02T13:30:15.751Z,3.37
2018-05-02T13:32:42.550Z,3.13
2018-05-02T13:35:08.750Z,3.60
2018-05-02T13:37:35.530Z,3.03
2018-05-02T13:40:01.715Z,3.20
2018-05-02T13:42:29.593Z,3.00
2018-05-02T13:44:56.332Z,3.30
2018-05-02T13:47:22.704Z,3.07
2018-05-02T13:49:50.313Z,3.20
2018-05-02T13:52:18.462Z,3.50
2018-05-02T13:54:44.729Z,3.50
2018-05-02T13:57:12.071Z,3.17
2018-05-02T13:59:39.002Z,3.33
2018-05-02T14:02:05.960Z,3.07
2018-05-02T14:04:32.870Z,3.27
2018-05-02T14:06:59.354Z,3.73
2018-05-02T14:09:27.338Z,3.80
2018-05-02T14:11:53.505Z,3.33
2018-05-02T14:14:19.707Z,3.50
2018-05-02T14:16:45.904Z,3.70
2018-05-02T14:19:13.238Z,3.47
2018-05-02T14:21:40.126Z,3.23
2018-05-02T14:24:07.410Z,3.37
2018-05-02T14:26:34.601Z,3.33
2018-05-02T14:29:00.780Z,3.13
2018-05-02T14:31:27.697Z,3.70
2018-05-02T14:33:53.901Z,3.87
2018-05-02T14:36:20.781Z,2.97
2018-05-02T14:38:47.099Z,3.47
2018-05-02T14:41:14.416Z,3.47
2018-05-02T14:43:41.502Z,3.47
2018-05-02T14:46:07.861Z,3.70
2018-05-02T14:48:34.797Z,3.17
2018-05-02T14:51:02.188Z,3.57
2018-05-02T14:53:29.654Z,3.20
2018-05-02T14:55:56.168Z,3.33
2018-05-02T14:58:23.665Z,3.60
2018-05-02T15:00:50.390Z,3.47
2018-05-02T15:03:16.593Z,3.17
2018-05-02T15:05:44.070Z,3.33
2018-05-02T15:08:10.548Z,3.90
2018-05-02T15:10:37.812Z,3.97
2018-05-02T15:13:04.748Z,4.10
2018-05-02T15:15:32.028Z,3.60
2018-05-02T15:17:59.668Z,3.67
2018-05-02T15:20:27.081Z,3.83
2018-05-02T15:22:53.588Z,3.27
2018-05-02T15:25:20.538Z,3.90
2018-05-02T15:27:48.013Z,3.60
2018-05-02T15:30:15.028Z,3.40
2018-05-02T15:32:42.276Z,4.07
2018-05-02T15:35:09.107Z,3.97
2018-05-02T15:37:35.829Z,3.40
2018-05-02T15:40:02.476Z,3.70
2018-05-02T15:42:29.456Z,3.70
2018-05-02T15:44:56.377Z,3.20
2018-05-02T15:47:24.170Z,3.27
2018-05-02T15:49:50.380Z,3.57
2018-05-02T15:52:17.327Z,3.97
2018-05-02T15:54:45.788Z,3.87
2018-05-02T15:57:12.880Z,3.50
2018-05-02T15:59:39.692Z,3.77
2018-05-02T16:02:06.709Z,3.77
2018-05-02T16:04:32.889Z,4.17
2018-05-02T16:06:59.062Z,3.90
2018-05-02T16:09:25.261Z,3.67
2018-05-02T16:11:52.103Z,3.63
2018-05-02T16:14:18.841Z,3.60
2018-05-02T16:16:46.091Z,4.10
2018-05-02T16:19:12.305Z,3.80
2018-05-02T16:21:38.572Z,3.83
2018-05-02T16:24:04.789Z,4.10
2018-05-02T16:26:30.987Z,3.23
2018-05-02T16:28:59.270Z,3.90
2018-05-02T16:31:26.167Z,3.70
2018-05-02T16:33:53.532Z,3.80
2018-05-02T16:36:21.650Z,3.90
2018-05-02T16:38:48.850Z,3.80
2018-05-02T16:41:15.048Z,4.47
2018-05-02T16:43:41.726Z,3.63
2018-05-02T16:46:09.204Z,4.17
2018-05-02T16:48:35.915Z,4.57
2018-05-02T16:51:02.131Z,4.17
2018-05-02T16:53:28.340Z,4.00
2018-05-02T16:55:54.530Z,3.90
2018-05-02T16:58:21.015Z,4.53
2018-05-02T17:00:48.010Z,4.30
2018-05-02T17:03:14.351Z,3.97
2018-05-02T17:05:41.912Z,4.27
2018-05-02T17:08:08.542Z,3.63
2018-05-02T17:10:36.128Z,4.23
2018-05-02T17:13:02.322Z,3.90
2018-05-02T17:15:28.943Z,4.40
2018-05-02T17:17:56.627Z,4.00
2018-05-02T17:20:29.857Z,3.90
2018-05-02T17:22:56.742Z,4.47
2018-05-02T17:25:24.180Z,4.20
2018-05-02T17:27:50.971Z,4.00
2018-05-02T17:30:17.712Z,4.93
2018-05-02T17:32:45.452Z,4.33
2018-05-02T17:35:11.958Z,4.50
2018-05-02T17:37:39.149Z,4.33
2018-05-02T17:40:06.215Z,3.80
2018-05-02T17:42:32.762Z,3.63
2018-05-02T17:44:59.878Z,3.97
2018-05-02T17:47:27.513Z,3.77
2018-05-02T17:49:54.596Z,3.60
2018-05-02T17:52:21.113Z,4.60
2018-05-02T17:54:48.632Z,4.53
2018-05-02T17:57:15.807Z,5.47
2018-05-02T17:59:42.880Z,6.03
2018-05-02T18:02:09.094Z,6.20
2018-05-02T18:04:36.045Z,4.30
2018-05-02T18:07:02.275Z,4.27
2018-05-02T18:09:29.000Z,4.20
2018-05-02T18:11:55.790Z,4.10
2018-05-02T18:14:23.008Z,7.40
2018-05-02T18:16:49.250Z,5.70
2018-05-02T18:19:15.448Z,6.00
2018-05-02T18:21:42.755Z,5.50
2018-05-02T18:24:09.581Z,6.13
2018-05-02T18:26:35.821Z,5.40
2018-05-02T18:29:02.985Z,5.20
2018-05-02T18:31:30.531Z,5.13
2018-05-02T18:33:56.778Z,4.60
2018-05-02T18:36:23.801Z,5.00
2018-05-02T18:38:50.925Z,5.70
2018-05-02T18:41:18.580Z,5.80
2018-05-02T18:43:44.822Z,4.80
2018-05-02T18:46:11.687Z,4.80
2018-05-02T18:48:37.954Z,5.00
2018-05-02T18:51:04.384Z,5.40
2018-05-02T18:53:31.445Z,5.13
2018-05-02T18:55:58.519Z,5.90
2018-05-02T18:58:25.753Z,4.90
2018-05-02T19:00:52.416Z,5.27
2018-05-02T19:03:19.144Z,5.03
2018-05-02T19:05:46.982Z,5.93
2018-05-02T19:08:14.189Z,6.00
2018-05-02T19:10:41.244Z,5.50
2018-05-02T19:13:08.514Z,5.73
2018-05-02T19:15:35.999Z,5.47
2018-05-02T19:18:09.375Z,5.57
2018-05-02T19:20:38.415Z,5.33
2018-05-02T19:23:05.833Z,5.73
2018-05-02T19:25:39.110Z,6.40
2018-05-02T19:28:07.242Z,5.80
2018-05-02T19:30:33.647Z,5.80
2018-05-02T19:33:06.672Z,5.73
2018-05-02T19:35:34.594Z,6.17
2018-05-02T19:38:01.124Z,6.23
2018-05-02T19:40:35.347Z,5.83
2018-05-02T19:43:08.328Z,6.50
2018-05-02T19:45:34.709Z,5.73
2018-05-02T19:48:01.840Z,6.07
2018-05-02T19:50:28.194Z,6.07
2018-05-02T19:52:55.595Z,6.30
2018-05-02T19:55:21.979Z,5.80
2018-05-02T19:57:48.849Z,5.50
2018-05-02T20:00:21.514Z,6.00
2018-05-02T20:02:54.513Z,5.90
2018-05-02T20:05:21.755Z,5.43
2018-05-02T20:07:48.018Z,4.90
2018-05-02T20:10:20.421Z,5.73
2018-05-02T20:12:53.454Z,5.70
2018-05-02T20:15:21.021Z,6.70
2018-05-02T20:17:49.010Z,6.10
2018-05-02T20:20:16.278Z,5.70
2018-05-02T20:22:42.535Z,5.10
2018-05-02T20:25:08.779Z,6.30
2018-05-02T20:27:35.011Z,5.87
2018-05-02T20:30:01.501Z,5.90
2018-05-02T20:32:28.686Z,5.93
2018-05-02T20:34:55.504Z,5.93
2018-05-02T20:37:22.423Z,6.57
2018-05-02T20:39:48.666Z,6.40
2018-05-02T20:42:15.849Z,6.13
2018-05-02T20:44:42.683Z,7.40
2018-05-02T20:47:10.596Z,7.17
2018-05-02T20:49:38.249Z,6.90
2018-05-02T20:52:06.156Z,5.40
2018-05-02T20:54:33.749Z,7.30
2018-05-02T20:57:00.796Z,5.97
2018-05-02T20:59:27.935Z,6.23
2018-05-02T21:01:55.908Z,6.93
2018-05-02T21:04:23.217Z,6.13
2018-05-02T21:06:51.233Z,6.30
2018-05-02T21:09:17.635Z,6.50
2018-05-02T21:11:45.040Z,6.30
2018-05-02T21:14:12.100Z,6.80
2018-05-02T21:16:39.807Z,6.07
2018-05-02T21:19:06.648Z,6.73
2018-05-02T21:21:32.870Z,8.03
2018-05-02T21:23:59.683Z,8.93
2018-05-02T21:26:27.227Z,8.30
2018-05-02T21:28:55.468Z,7.87
2018-05-02T21:31:22.209Z,6.57
2018-05-02T21:33:49.802Z,7.20
2018-05-02T21:36:17.292Z,7.20
2018-05-02T21:38:44.789Z,7.10
2018-05-02T21:41:11.582Z,7.40
2018-05-02T21:43:37.787Z,6.73
2018-05-02T21:46:05.146Z,7.60
2018-05-02T21:48:32.192Z,6.13
2018-05-02T21:50:58.475Z,6.40
2018-05-02T21:53:26.656Z,6.90
2018-05-02T21:55:54.211Z,6.37
2018-05-02T21:58:20.425Z,6.60
2018-05-02T22:00:46.738Z,6.90
2018-05-02T22:03:13.310Z,7.17
2018-05-02T22:05:40.879Z,6.00
2018-05-02T22:08:07.800Z,6.60
2018-05-02T22:10:34.817Z,7.50
2018-05-02T22:13:01.708Z,7.97
2018-05-02T22:15:28.011Z,6.80
2018-05-02T22:17:54.742Z,7.37
2018-05-02T22:20:21.475Z,7.40
2018-05-02T22:22:47.673Z,7.03
2018-05-02T22:25:14.805Z,7.27
2018-05-02T22:27:43.762Z,7.50
2018-05-02T22:30:10.529Z,6.50
2018-05-02T22:32:38.071Z,7.20
2018-05-02T22:35:04.584Z,7.40
2018-05-02T22:37:31.020Z,6.93
2018-05-02T22:39:57.815Z,8.03
2018-05-02T22:42:25.444Z,8.10
2018-05-02T22:44:51.647Z,8.53
2018-05-02T22:47:18.502Z,7.17
2018-05-02T22:49:45.805Z,8.50
2018-05-02T22:52:14.111Z,7.57
2018-05-02T22:54:41.928Z,7.93
2018-05-02T22:57:08.143Z,7.50
2018-05-02T22:59:34.345Z,8.10
2018-05-02T23:02:01.740Z,7.67
2018-05-02T23:04:28.017Z,8.43
2018-05-02T23:06:55.316Z,7.97
2018-05-02T23:09:21.966Z,8.37
2018-05-02T23:11:48.992Z,8.63
2018-05-02T23:14:15.645Z,7.90
2018-05-02T23:16:42.754Z,8.40
2018-05-02T23:19:10.204Z,8.10
2018-05-02T23:21:36.946Z,8.30
2018-05-02T23:24:03.198Z,8.63
2018-05-02T23:26:29.438Z,8.23
2018-05-02T23:28:56.009Z,8.00
2018-05-02T23:31:23.543Z,7.70
2018-05-02T23:33:49.766Z,8.13
2018-05-02T23:36:15.983Z,8.60
2018-05-02T23:38:43.253Z,8.90
2018-05-02T23:41:10.811Z,8.63
2018-05-02T23:43:37.152Z,8.63
2018-05-02T23:46:05.146Z,9.30
2018-05-02T23:48:31.352Z,8.20
2018-05-02T23:50:58.320Z,7.67
2018-05-02T23:53:24.709Z,8.77
2018-05-02T23:55:51.991Z,8.23
2018-05-02T23:58:19.280Z,8.70
